Terminal Aerodrome Forecast
Issued by NWS Green Bay, WI

Home | Current Version | Previous Version | Text Only | Print | Product List | Glossary On
Versions: 1 2 3 4 5 6 7 8 9 10 11 12 13 14 15 16 17 18 19 20 21 22 23 24 25 26 27 28 29 30
000
FTUS43 KGRB 181736
TAFGRB
TAF
KGRB 181736Z 1818/1918 17015G27KT P6SM BKN120 WS020/19050KT
     FM190100 18011G19KT P6SM BKN120 WS017/22045KT
     FM190800 20004KT P6SM BKN060 WS017/21045KT
     FM191100 07007KT 5SM BR BKN022 WS017/24035KT
     FM191500 03011G19KT P6SM -FZRA OVC012=

USA.gov is the U.S. government's official web portal to all federal, state and local government web resources and services.